Dorothy Ann — WDE8761 — position and weather

sailwx.info

Track history (hours):
 
Tides and Currents Weather Stations Pressure Air Temp Water Temp Dewpoint Dewpoint Depression Visibility Wind Speed Wind Dir Waves Ship Positions

Dorothy Ann

Owner: THE INTERLAKE STEAMSHIP COMPANY, Middleburg Heights, OH. More information available from US FCC via Universal Licensing System and Coast Guard Vessel Documentation Center.

Last reported at 2016-Jan-10 14:00 UTC. Time now 2016-Feb-10 00:34 UTC.
Position N 42°06' W 080°06'.
Warning: this ship's position is 30 days out of date.

Length 215 m; draft 7.2 m.

Type: Cargo ship. MMSI: 367409260.

Wind from 180 at 8 knots

Barometer 992.4 mb
Air temperature 9.2 ° C
Water temperature 5.3 ° C

Date/timePositionNaut miles runAvg speedWind from/ knotsBaromVisibWave heightAir tempDewpointWater temp
2016-Jan-10 14:00N 42°06' W 080°06'0 0.0 180 / 8992.4 9.2 5.3
2016-Jan-10 13:00N 42°06' W 080°06'6 6.0 190 / 9993.1 9.1 5.0
2016-Jan-10 12:00N 42°12' W 080°06'4 4.4 160 / 18993.7 9.3 6.7
2016-Jan-10 11:00N 42°12' W 080°12'7 7.5 120 / 8996.4 8.7 6.6
2016-Jan-10 10:00N 42°06' W 080°18'9 8.9 140 / 14997.8 8.2 8.6
2016-Jan-10 09:00N 42°06' W 080°30'1110.7 160 / 30998.8 8.2 7.6
2016-Jan-10 08:00N 42°00' W 080°42'9 8.9 160 / 121001.2 9.0 7.7
2016-Jan-10 07:00N 42°00' W 080°54'9 8.9 160 / 191001.9 7.9 6.9
2016-Jan-10 06:00N 42°00' W 081°06'1110.8 150 / 241002.5 7.2 7.6
2016-Jan-10 05:00N 41°54' W 081°18'9 8.9 150 / 191003.9 7.1 7.9
2016-Jan-10 04:00N 41°54' W 081°30'1110.8 120 / 191004.9 7.6 8.0
2016-Jan-10 03:00N 41°48' W 081°42'6 6.0 100 / 171006.3 7.3 7.9
2016-Jan-10 02:00N 41°42' W 081°42'1212.0 090 / 151007.3 7.6 7.8
2016-Jan-10 01:00N 41°30' W 081°42'0 0.0 090 / 91008.6 9.0 6.3
2016-Jan-10 00:00N 41°30' W 081°42'0 0.0 140 / 31010.0 10.6 8.5
2016-Jan-09 21:00N 41°30' W 081°42'0 0.0 150 / 71011.7 11.4 8.2
2016-Jan-09 20:00N 41°30' W 081°42'0 0.0 230 / 41012.0 12.4 8.1
2016-Jan-09 19:00N 41°30' W 081°42'0 0.0 270 / 21012.0 12.7 7.8
2016-Jan-09 18:00N 41°30' W 081°42'0 0.0 190 / 41012.0 11.8 9.1
2016-Jan-09 16:00N 41°30' W 081°42'0 0.0 240 / 51013.4 10.6 8.4
2016-Jan-09 15:00N 41°30' W 081°42'0 0.0 130 / 41013.4 9.4 7.7
2016-Jan-09 14:00N 41°30' W 081°42'0 0.0 180 / 71013.0 8.9 6.0
2016-Jan-09 13:00N 41°30' W 081°42'0 0.0 200 / 101012.7 8.9 6.2
2016-Jan-09 10:00N 41°30' W 081°42'0 0.0 200 / 91011.0 9.4 6.2
2016-Jan-09 09:00N 41°30' W 081°42'0 0.0 170 / 101010.7 9.3 6.2
2016-Jan-09 08:00N 41°30' W 081°42'0 0.0 190 / 101011.0 9.3 6.3
2016-Jan-09 07:00N 41°30' W 081°42'0 0.0 170 / 121011.0 9.1 6.2
2016-Jan-09 06:00N 41°30' W 081°42'0 0.0 140 / 71011.3 7.3 5.9
2016-Jan-09 05:00N 41°30' W 081°42'0 0.0 150 / 91011.7 8.5 6.8
2016-Jan-09 04:00N 41°30' W 081°42'0 0.0 170 / 71012.4 7.7 7.9
2016-Jan-09 03:00N 41°30' W 081°42'0 0.0 150 / 61012.7 6.5 7.3
2016-Jan-09 01:00N 41°30' W 081°42'0 0.0 160 / 91012.0 6.0 6.9
2016-Jan-09 00:00N 41°30' W 081°42'0 0.0 130 / 81012.0 5.4 6.6
2016-Jan-08 21:00N 41°30' W 081°42'0 0.0 150 / 171011.7 3.2 5.7
2016-Jan-08 20:00N 41°30' W 081°42'0 0.0 150 / 121012.0 3.8 5.9
2016-Jan-08 18:00N 41°30' W 081°42'0 0.0 160 / 51013.7 5.5 6.1
2016-Jan-08 17:00N 41°30' W 081°42'0 0.0 140 / 71014.7 5.3 6.1
2016-Jan-08 16:00N 41°30' W 081°42'0 0.0 150 / 101015.4 3.1 6.1
2016-Jan-08 15:00N 41°30' W 081°42'0 0.0 140 / 111016.1 2.8 6.1
2016-Jan-08 14:00N 41°30' W 081°42'0 0.0 130 / 91016.1 1.6 5.9
2016-Jan-08 13:00N 41°30' W 081°42'0 0.0 110 / 51016.4 1.3 6.6
2016-Jan-08 12:00N 41°30' W 081°42'0 0.0 150 / 51016.4 0.8 7.7
2016-Jan-08 11:00N 41°30' W 081°42'0 0.0 130 / 61017.1 -0.0 6.5
2016-Jan-08 10:00N 41°30' W 081°42'0 0.0 140 / 41016.8 0.3 6.9
2016-Jan-08 08:00N 41°30' W 081°42'0 0.0 160 / 41018.1 0.1 6.8
2016-Jan-08 06:00N 41°30' W 081°42'0 0.0 080 / 21019.1 2.2 6.7
2016-Jan-08 03:00N 41°30' W 081°42'0 0.0 130 / 81020.5 2.8 6.0
2016-Jan-08 02:00N 41°30' W 081°42'0 0.0 140 / 71020.8 3.0 6.2
2016-Jan-07 23:00N 41°30' W 081°42'0 0.0 070 / 81021.2 3.7 5.8
2016-Jan-07 22:00N 41°30' W 081°42'0 0.0 340 / 21021.2 6.5 6.8
2016-Jan-07 21:00N 41°30' W 081°42'0 0.0 110 / 21020.8 8.1 7.0
2016-Jan-07 18:00N 41°30' W 081°42'4 1.5 140 / 41022.9 5.8 6.9
2016-Jan-07 15:00N 41°30' W 081°48'1110.8 150 / 101024.2 1.3 6.2
2016-Jan-07 14:00N 41°36' W 082°00'9 9.0 160 / 91024.2 1.1 6.1
2016-Jan-07 13:00N 41°36' W 082°12'9 9.0 180 / 131024.2 0.3 5.7
2016-Jan-07 12:00N 41°36' W 082°24'15 7.4 160 / 91024.2 1.0 5.4
2016-Jan-07 10:00N 41°30' W 082°42'0 0.0 190 / 91024.2 -0.0 4.0
2016-Jan-07 09:00N 41°30' W 082°42'0 0.0 180 / 91024.2 -0.2 4.2
2016-Jan-07 08:00N 41°30' W 082°42'0 0.0 190 / 91024.9 0.3 4.4
2016-Jan-07 07:00N 41°30' W 082°42'0 0.0 200 / 101024.9 -0.1 4.4
2016-Jan-07 06:00N 41°30' W 082°42'0 0.0 200 / 101025.2 0.2 4.5
2016-Jan-07 04:00N 41°30' W 082°42'0 0.0 210 / 71025.9 0.1 4.5
2016-Jan-07 03:00N 41°30' W 082°42'0 0.0 210 / 71026.2 0.2 4.5
2016-Jan-07 00:00N 41°30' W 082°42'0 0.0 200 / 81026.2 1.2 4.2
2016-Jan-06 23:00N 41°30' W 082°42'0 0.0 190 / 61026.6 1.8 4.2
2016-Jan-06 19:00N 41°30' W 082°42'0 0.0 230 / 81027.6 2.6 4.2
2016-Jan-06 18:00N 41°30' W 082°42'0 0.0 240 / 81028.3 1.9 4.3
2016-Jan-06 16:00N 41°30' W 082°42'6 6.0 240 / 101030.3 -0.6 3.9
2016-Jan-06 15:00N 41°36' W 082°42'0 0.0 220 / 121030.3 -1.0 4.8
2016-Jan-06 14:00N 41°36' W 082°42'0 0.0 210 / 101030.3 -3.6 4.6
2016-Jan-06 13:00N 41°36' W 082°42'0 0.0 210 / 111030.3 -4.3 4.6
2016-Jan-06 12:00N 41°36' W 082°42'0 0.0 220 / 101030.6 -4.5 4.6
2016-Jan-06 11:00N 41°36' W 082°42'0 0.0 210 / 111030.3 -4.5 4.6
2016-Jan-06 10:00N 41°36' W 082°42'0 0.0 220 / 131030.3 -4.6 4.6
2016-Jan-06 09:00N 41°36' W 082°42'0 0.0 230 / 111031.0 -4.5 4.7
2016-Jan-06 07:00N 41°36' W 082°42'0 0.0 200 / 81031.3 -4.3 4.5
2016-Jan-06 06:00N 41°36' W 082°42'0 0.0 190 / 141031.0 -4.1 4.5
2016-Jan-06 05:00N 41°36' W 082°42'4 4.5 180 / 101031.7 -3.7 4.6
2016-Jan-06 04:00N 41°36' W 082°36'13 4.5 180 / 181032.0 -2.1 5.5
2016-Jan-06 01:00N 41°36' W 082°18'4 4.5 170 / 161032.7 -2.3 5.4
2016-Jan-06 00:00N 41°36' W 082°12'4 4.5 170 / 141033.0 -2.4 5.8
2016-Jan-05 23:00N 41°36' W 082°06'15 7.4 170 / 131033.0 -2.4 6.3
2016-Jan-05 21:00N 41°30' W 081°48'4 4.5 210 / 81034.7 -1.4 6.5
2016-Jan-05 20:00N 41°30' W 081°42'0 0.0 210 / 41035.0 -0.9 7.3
2016-Jan-05 16:00N 41°30' W 081°42'0 0.0 230 / 61039.1 -6.0 7.5
2016-Jan-05 15:00N 41°30' W 081°42'0 0.0 200 / 81038.8 -7.7 7.5
2016-Jan-05 12:00N 41°30' W 081°42'28 9.2 180 / 141036.7 -9.1 6.2
2016-Jan-05 09:00N 41°36' W 082°18'9 9.0 150 / 71036.1 -5.8 5.7
2016-Jan-05 08:00N 41°36' W 082°30'9 9.0 070 / 81036.1 -5.7 5.8
2016-Jan-05 07:00N 41°36' W 082°42'6 6.0 070 / 101035.7 -6.2 5.4
2016-Jan-05 06:00N 41°30' W 082°42'0 0.0 020 / 121035.7 -6.6 4.1
2016-Jan-05 04:00N 41°30' W 082°42'0 0.0 020 / 141035.7 -6.3 4.2
2016-Jan-05 02:00N 41°30' W 082°42'0 0.0 030 / 131035.0 -6.1 4.1
2016-Jan-05 01:00N 41°30' W 082°42'0 0.0 030 / 131034.7 -6.1 4.1
2016-Jan-05 00:00N 41°30' W 082°42'0 0.0 020 / 131034.0 -5.9 4.0
2016-Jan-04 21:00N 41°30' W 082°42'0 0.0 010 / 191031.7 -5.5 4.9
2016-Jan-04 18:00N 41°30' W 082°42'0 0.0 030 / 161029.6 -5.0 4.9
2016-Jan-04 17:00N 41°30' W 082°42'0 0.0 050 / 171028.9 -4.5 5.2
2016-Jan-04 13:00N 41°30' W 082°42'0 0.0 360 / 181024.5 -2.9 5.2
2016-Jan-04 10:00N 41°30' W 082°42'0 0.0 350 / 211022.2 -2.5 5.3
2016-Jan-04 09:00N 41°30' W 082°42'6 2.0 350 / 211021.5 -2.0 5.0
2016-Jan-04 06:00N 41°36' W 082°42'9 9.0 350 / 231020.1 -1.7 6.4
2016-Jan-04 05:00N 41°36' W 082°30'9 9.0 350 / 201020.1 -1.2 6.0
2016-Jan-04 04:00N 41°36' W 082°18'1313.5 1020.1 -1.2 6.6
2016-Jan-04 03:00N 41°36' W 082°00'15 7.4 350 / 201019.8 -0.6 7.1
2016-Jan-04 01:00N 41°30' W 081°42'0 0.0 350 / 171019.5 -0.2 7.6
2016-Jan-04 00:00N 41°30' W 081°42'0 0.0 340 / 81018.8 -0.0 7.8
2016-Jan-03 23:00N 41°30' W 081°42'0 0.0 330 / 121017.8 -0.0 6.9
2016-Jan-03 22:00N 41°30' W 081°42'0 0.0 330 / 131017.1 0.5 7.1
2016-Jan-03 19:00N 41°30' W 081°42'0 0.0 330 / 91015.1 1.9 7.9
2016-Jan-03 18:00N 41°30' W 081°42'0 0.0 330 / 111014.7 1.4 7.8
2016-Jan-03 15:00N 41°30' W 081°42'0 0.0 260 / 141014.7 0.5 7.5
2016-Jan-03 14:00N 41°30' W 081°42'0 0.0 240 / 131014.0 0.4 7.8
2016-Jan-03 12:00N 41°30' W 081°42'0 0.0 240 / 111013.0 0.3 7.8
2016-Jan-03 10:00N 41°30' W 081°42'0 0.0 260 / 171012.0 0.6 7.7
2016-Jan-03 09:00N 41°30' W 081°42'0 0.0 260 / 151012.0 0.7 7.6
2016-Jan-03 07:00N 41°30' W 081°42'0 0.0 240 / 101012.0 1.0 7.8
2016-Jan-03 06:00N 41°30' W 081°42'0 0.0 230 / 151011.3 1.3 7.9
2016-Jan-03 04:00N 41°30' W 081°42'0 0.0 210 / 111012.4 1.3 8.2
2016-Jan-03 03:00N 41°30' W 081°42'0 0.0 210 / 141012.0 1.0 8.6
2016-Jan-03 02:00N 41°30' W 081°42'0 0.0 220 / 121014.0 0.5 8.8
2016-Jan-03 01:00N 41°30' W 081°42'0 0.0 210 / 81014.7 -0.0 8.8
2016-Jan-03 00:00N 41°30' W 081°42'0 0.0 210 / 41015.7 -0.1 8.4
2016-Jan-02 23:00N 41°30' W 081°42'0 0.0 200 / 61016.1 0.1 9.2
2016-Jan-02 22:00N 41°30' W 081°42'0 0.0 210 / 101016.1 0.1 9.0
2016-Jan-02 21:00N 41°30' W 081°42'0 0.0 220 / 151016.1 -0.2 8.6
2016-Jan-02 20:00N 41°30' W 081°42'0 0.0 230 / 121016.4 -0.5 8.6
2016-Jan-02 19:00N 41°30' W 081°42'0 0.0 260 / 141017.1 -0.9 8.6
2016-Jan-02 16:00N 41°30' W 081°42'0 0.0 230 / 151019.5 -1.2 8.1
2016-Jan-02 15:00N 41°30' W 081°42'0 0.0 230 / 121019.5 -1.4 8.0
2016-Jan-02 12:00N 41°30' W 081°42'0 0.0 200 / 121018.8 -2.8 9.1
2016-Jan-02 11:00N 41°30' W 081°42'0 0.0 210 / 101018.5 -2.5 9.2
2016-Jan-02 10:00N 41°30' W 081°42'0 0.0 230 / 111018.8 -2.3 9.1
2016-Jan-02 09:00N 41°30' W 081°42'0 0.0 210 / 91019.5 -2.1 9.3
2016-Jan-02 07:00N 41°30' W 081°42'0 0.0 210 / 91020.5 -2.2 9.2
2016-Jan-02 06:00N 41°30' W 081°42'0 0.0 240 / 121021.2 -2.5 9.2
2016-Jan-02 05:00N 41°30' W 081°42'0 0.0 230 / 101021.5 -2.8 9.3
2016-Jan-02 04:00N 41°30' W 081°42'0 0.0 230 / 121021.5 -2.9 9.2
2016-Jan-02 03:00N 41°30' W 081°42'0 0.0 240 / 111022.2 -2.8 9.2
2016-Jan-02 01:00N 41°30' W 081°42'0 0.0 240 / 141021.5 -2.9 9.2
2016-Jan-02 00:00N 41°30' W 081°42'0 0.0 240 / 181021.5 -3.2 9.3
2016-Jan-01 23:00N 41°30' W 081°42'0 0.0 250 / 171021.5 -2.9 9.2
2016-Jan-01 22:00N 41°30' W 081°42'0 0.0 250 / 241021.2 -2.3 8.9
2016-Jan-01 21:00N 41°30' W 081°42'0 0.0 260 / 241020.1 -1.8 9.3
2016-Jan-01 19:00N 41°30' W 081°42'0 0.0 260 / 241019.5 -1.2 9.5
2016-Jan-01 18:00N 41°30' W 081°42'0 0.0 260 / 221019.8 -1.2 9.5
2016-Jan-01 17:00N 41°30' W 081°42'0 0.0 230 / 171020.5 -1.1 9.5
2016-Jan-01 16:00N 41°30' W 081°42'0 0.0 240 / 171021.5 -1.2 9.5
2016-Jan-01 13:00N 41°30' W 081°42'0 0.0 260 / 201021.2 -1.6 9.5
2016-Jan-01 12:00N 41°30' W 081°42'0 0.0 260 / 51021.2 -1.1 9.4
2016-Jan-01 11:00N 41°30' W 081°42'0 0.0 240 / 121020.8 -0.8 9.2
2016-Jan-01 10:00N 41°30' W 081°42'0 0.0 260 / 121021.2 -0.9 8.6
2016-Jan-01 09:00N 41°30' W 081°42'0 0.0 260 / 121021.5 -0.9 8.8
2016-Jan-01 08:00N 41°30' W 081°42'0 0.0 260 / 91022.2 -0.7 8.8
2016-Jan-01 05:00N 41°30' W 081°42'0 0.0 270 / 81023.2 -0.0 9.6
2016-Jan-01 04:00N 41°30' W 081°42'0 0.0 250 / 141022.9 -0.1 8.3
2016-Jan-01 03:00N 41°30' W 081°42'0 0.0 230 / 111023.2 -0.2 8.5
2016-Jan-01 00:00N 41°30' W 081°42'18 6.0 240 / 101023.9 -0.8 8.4
2015-Dec-31 21:00N 41°30' W 082°06'4 4.5 270 / 191023.2 -0.4 7.9
2015-Dec-31 20:00N 41°30' W 082°12'0 0.0 240 / 101023.5 -0.5 8.4
2015-Dec-31 19:00N 41°30' W 082°12'0 0.0 230 / 91023.2 -0.8 8.5
2015-Dec-31 18:00N 41°30' W 082°12'0 0.0 250 / 81023.5 -0.7 8.4
2015-Dec-31 17:00N 41°30' W 082°12'0 0.0 240 / 101024.2 -0.7 8.6
2015-Dec-31 16:00N 41°30' W 082°12'0 0.0 250 / 101024.9 -0.6 8.6
2015-Dec-31 15:00N 41°30' W 082°12'0 0.0 220 / 71024.9 -0.7 8.5
2015-Dec-31 14:00N 41°30' W 082°12'   250 / 191024.2 0.5 8.0
Track history (hours):
 
Tides and Currents Weather Stations Pressure Air Temp Water Temp Dewpoint Dewpoint Depression Visibility Wind Speed Wind Dir Waves Ship Positions

Dorothy Ann

Owner: THE INTERLAKE STEAMSHIP COMPANY, Middleburg Heights, OH. More information available from US FCC via Universal Licensing System and Coast Guard Vessel Documentation Center.

Last reported at 2016-Jan-10 14:00 UTC. Time now 2016-Feb-10 00:34 UTC.
Position N 42°06' W 080°06'.
Warning: this ship's position is 30 days out of date.

Length 215 m; draft 7.2 m.

Type: Cargo ship. MMSI: 367409260.

Wind from 180 at 8 knots

Barometer 992.4 mb
Air temperature 9.2 ° C
Water temperature 5.3 ° C

Date/timePositionNaut miles runAvg speedWind from/ knotsBaromVisibWave heightAir tempDewpointWater temp
2016-Jan-10 14:00N 42°06' W 080°06'0 0.0 180 / 8992.4 9.2 5.3
2016-Jan-10 13:00N 42°06' W 080°06'6 6.0 190 / 9993.1 9.1 5.0
2016-Jan-10 12:00N 42°12' W 080°06'4 4.4 160 / 18993.7 9.3 6.7
2016-Jan-10 11:00N 42°12' W 080°12'7 7.5 120 / 8996.4 8.7 6.6
2016-Jan-10 10:00N 42°06' W 080°18'9 8.9 140 / 14997.8 8.2 8.6
2016-Jan-10 09:00N 42°06' W 080°30'1110.7 160 / 30998.8 8.2 7.6
2016-Jan-10 08:00N 42°00' W 080°42'9 8.9 160 / 121001.2 9.0 7.7
2016-Jan-10 07:00N 42°00' W 080°54'9 8.9 160 / 191001.9 7.9 6.9
2016-Jan-10 06:00N 42°00' W 081°06'1110.8 150 / 241002.5 7.2 7.6
2016-Jan-10 05:00N 41°54' W 081°18'9 8.9 150 / 191003.9 7.1 7.9
2016-Jan-10 04:00N 41°54' W 081°30'1110.8 120 / 191004.9 7.6 8.0
2016-Jan-10 03:00N 41°48' W 081°42'6 6.0 100 / 171006.3 7.3 7.9
2016-Jan-10 02:00N 41°42' W 081°42'1212.0 090 / 151007.3 7.6 7.8
2016-Jan-10 01:00N 41°30' W 081°42'0 0.0 090 / 91008.6 9.0 6.3
2016-Jan-10 00:00N 41°30' W 081°42'0 0.0 140 / 31010.0 10.6 8.5
2016-Jan-09 21:00N 41°30' W 081°42'0 0.0 150 / 71011.7 11.4 8.2
2016-Jan-09 20:00N 41°30' W 081°42'0 0.0 230 / 41012.0 12.4 8.1
2016-Jan-09 19:00N 41°30' W 081°42'0 0.0 270 / 21012.0 12.7 7.8
2016-Jan-09 18:00N 41°30' W 081°42'0 0.0 190 / 41012.0 11.8 9.1
2016-Jan-09 16:00N 41°30' W 081°42'0 0.0 240 / 51013.4 10.6 8.4
2016-Jan-09 15:00N 41°30' W 081°42'0 0.0 130 / 41013.4 9.4 7.7
2016-Jan-09 14:00N 41°30' W 081°42'0 0.0 180 / 71013.0 8.9 6.0
2016-Jan-09 13:00N 41°30' W 081°42'0 0.0 200 / 101012.7 8.9 6.2
2016-Jan-09 10:00N 41°30' W 081°42'0 0.0 200 / 91011.0 9.4 6.2
2016-Jan-09 09:00N 41°30' W 081°42'0 0.0 170 / 101010.7 9.3 6.2
2016-Jan-09 08:00N 41°30' W 081°42'0 0.0 190 / 101011.0 9.3 6.3
2016-Jan-09 07:00N 41°30' W 081°42'0 0.0 170 / 121011.0 9.1 6.2
2016-Jan-09 06:00N 41°30' W 081°42'0 0.0 140 / 71011.3 7.3 5.9
2016-Jan-09 05:00N 41°30' W 081°42'0 0.0 150 / 91011.7 8.5 6.8
2016-Jan-09 04:00N 41°30' W 081°42'0 0.0 170 / 71012.4 7.7 7.9
2016-Jan-09 03:00N 41°30' W 081°42'0 0.0 150 / 61012.7 6.5 7.3
2016-Jan-09 01:00N 41°30' W 081°42'0 0.0 160 / 91012.0 6.0 6.9
2016-Jan-09 00:00N 41°30' W 081°42'0 0.0 130 / 81012.0 5.4 6.6
2016-Jan-08 21:00N 41°30' W 081°42'0 0.0 150 / 171011.7 3.2 5.7
2016-Jan-08 20:00N 41°30' W 081°42'0 0.0 150 / 121012.0 3.8 5.9
2016-Jan-08 18:00N 41°30' W 081°42'0 0.0 160 / 51013.7 5.5 6.1
2016-Jan-08 17:00N 41°30' W 081°42'0 0.0 140 / 71014.7 5.3 6.1
2016-Jan-08 16:00N 41°30' W 081°42'0 0.0 150 / 101015.4 3.1 6.1
2016-Jan-08 15:00N 41°30' W 081°42'0 0.0 140 / 111016.1 2.8 6.1
2016-Jan-08 14:00N 41°30' W 081°42'0 0.0 130 / 91016.1 1.6 5.9
2016-Jan-08 13:00N 41°30' W 081°42'0 0.0 110 / 51016.4 1.3 6.6
2016-Jan-08 12:00N 41°30' W 081°42'0 0.0 150 / 51016.4 0.8 7.7
2016-Jan-08 11:00N 41°30' W 081°42'0 0.0 130 / 61017.1 -0.0 6.5
2016-Jan-08 10:00N 41°30' W 081°42'0 0.0 140 / 41016.8 0.3 6.9
2016-Jan-08 08:00N 41°30' W 081°42'0 0.0 160 / 41018.1 0.1 6.8
2016-Jan-08 06:00N 41°30' W 081°42'0 0.0 080 / 21019.1 2.2 6.7
2016-Jan-08 03:00N 41°30' W 081°42'0 0.0 130 / 81020.5 2.8 6.0
2016-Jan-08 02:00N 41°30' W 081°42'0 0.0 140 / 71020.8 3.0 6.2
2016-Jan-07 23:00N 41°30' W 081°42'0 0.0 070 / 81021.2 3.7 5.8
2016-Jan-07 22:00N 41°30' W 081°42'0 0.0 340 / 21021.2 6.5 6.8
2016-Jan-07 21:00N 41°30' W 081°42'0 0.0 110 / 21020.8 8.1 7.0
2016-Jan-07 18:00N 41°30' W 081°42'4 1.5 140 / 41022.9 5.8 6.9
2016-Jan-07 15:00N 41°30' W 081°48'1110.8 150 / 101024.2 1.3 6.2
2016-Jan-07 14:00N 41°36' W 082°00'9 9.0 160 / 91024.2 1.1 6.1
2016-Jan-07 13:00N 41°36' W 082°12'9 9.0 180 / 131024.2 0.3 5.7
2016-Jan-07 12:00N 41°36' W 082°24'15 7.4 160 / 91024.2 1.0 5.4
2016-Jan-07 10:00N 41°30' W 082°42'0 0.0 190 / 91024.2 -0.0 4.0
2016-Jan-07 09:00N 41°30' W 082°42'0 0.0 180 / 91024.2 -0.2 4.2
2016-Jan-07 08:00N 41°30' W 082°42'0 0.0 190 / 91024.9 0.3 4.4
2016-Jan-07 07:00N 41°30' W 082°42'0 0.0 200 / 101024.9 -0.1 4.4
2016-Jan-07 06:00N 41°30' W 082°42'0 0.0 200 / 101025.2 0.2 4.5
2016-Jan-07 04:00N 41°30' W 082°42'0 0.0 210 / 71025.9 0.1 4.5
2016-Jan-07 03:00N 41°30' W 082°42'0 0.0 210 / 71026.2 0.2 4.5
2016-Jan-07 00:00N 41°30' W 082°42'0 0.0 200 / 81026.2 1.2 4.2
2016-Jan-06 23:00N 41°30' W 082°42'0 0.0 190 / 61026.6 1.8 4.2
2016-Jan-06 19:00N 41°30' W 082°42'0 0.0 230 / 81027.6 2.6 4.2
2016-Jan-06 18:00N 41°30' W 082°42'0 0.0 240 / 81028.3 1.9 4.3
2016-Jan-06 16:00N 41°30' W 082°42'6 6.0 240 / 101030.3 -0.6 3.9
2016-Jan-06 15:00N 41°36' W 082°42'0 0.0 220 / 121030.3 -1.0 4.8
2016-Jan-06 14:00N 41°36' W 082°42'0 0.0 210 / 101030.3 -3.6 4.6
2016-Jan-06 13:00N 41°36' W 082°42'0 0.0 210 / 111030.3 -4.3 4.6
2016-Jan-06 12:00N 41°36' W 082°42'0 0.0 220 / 101030.6 -4.5 4.6
2016-Jan-06 11:00N 41°36' W 082°42'0 0.0 210 / 111030.3 -4.5 4.6
2016-Jan-06 10:00N 41°36' W 082°42'0 0.0 220 / 131030.3 -4.6 4.6
2016-Jan-06 09:00N 41°36' W 082°42'0 0.0 230 / 111031.0 -4.5 4.7
2016-Jan-06 07:00N 41°36' W 082°42'0 0.0 200 / 81031.3 -4.3 4.5
2016-Jan-06 06:00N 41°36' W 082°42'0 0.0 190 / 141031.0 -4.1 4.5
2016-Jan-06 05:00N 41°36' W 082°42'4 4.5 180 / 101031.7 -3.7 4.6
2016-Jan-06 04:00N 41°36' W 082°36'13 4.5 180 / 181032.0 -2.1 5.5
2016-Jan-06 01:00N 41°36' W 082°18'4 4.5 170 / 161032.7 -2.3 5.4
2016-Jan-06 00:00N 41°36' W 082°12'4 4.5 170 / 141033.0 -2.4 5.8
2016-Jan-05 23:00N 41°36' W 082°06'15 7.4 170 / 131033.0 -2.4 6.3
2016-Jan-05 21:00N 41°30' W 081°48'4 4.5 210 / 81034.7 -1.4 6.5
2016-Jan-05 20:00N 41°30' W 081°42'0 0.0 210 / 41035.0 -0.9 7.3
2016-Jan-05 16:00N 41°30' W 081°42'0 0.0 230 / 61039.1 -6.0 7.5
2016-Jan-05 15:00N 41°30' W 081°42'0 0.0 200 / 81038.8 -7.7 7.5
2016-Jan-05 12:00N 41°30' W 081°42'28 9.2 180 / 141036.7 -9.1 6.2
2016-Jan-05 09:00N 41°36' W 082°18'9 9.0 150 / 71036.1 -5.8 5.7
2016-Jan-05 08:00N 41°36' W 082°30'9 9.0 070 / 81036.1 -5.7 5.8
2016-Jan-05 07:00N 41°36' W 082°42'6 6.0 070 / 101035.7 -6.2 5.4
2016-Jan-05 06:00N 41°30' W 082°42'0 0.0 020 / 121035.7 -6.6 4.1
2016-Jan-05 04:00N 41°30' W 082°42'0 0.0 020 / 141035.7 -6.3 4.2
2016-Jan-05 02:00N 41°30' W 082°42'0 0.0 030 / 131035.0 -6.1 4.1
2016-Jan-05 01:00N 41°30' W 082°42'0 0.0 030 / 131034.7 -6.1 4.1
2016-Jan-05 00:00N 41°30' W 082°42'0 0.0 020 / 131034.0 -5.9 4.0
2016-Jan-04 21:00N 41°30' W 082°42'0 0.0 010 / 191031.7 -5.5 4.9
2016-Jan-04 18:00N 41°30' W 082°42'0 0.0 030 / 161029.6 -5.0 4.9
2016-Jan-04 17:00N 41°30' W 082°42'0 0.0 050 / 171028.9 -4.5 5.2
2016-Jan-04 13:00N 41°30' W 082°42'0 0.0 360 / 181024.5 -2.9 5.2
2016-Jan-04 10:00N 41°30' W 082°42'0 0.0 350 / 211022.2 -2.5 5.3
2016-Jan-04 09:00N 41°30' W 082°42'6 2.0 350 / 211021.5 -2.0 5.0
2016-Jan-04 06:00N 41°36' W 082°42'9 9.0 350 / 231020.1 -1.7 6.4
2016-Jan-04 05:00N 41°36' W 082°30'9 9.0 350 / 201020.1 -1.2 6.0
2016-Jan-04 04:00N 41°36' W 082°18'1313.5 1020.1 -1.2 6.6
2016-Jan-04 03:00N 41°36' W 082°00'15 7.4 350 / 201019.8 -0.6 7.1
2016-Jan-04 01:00N 41°30' W 081°42'0 0.0 350 / 171019.5 -0.2 7.6
2016-Jan-04 00:00N 41°30' W 081°42'0 0.0 340 / 81018.8 -0.0 7.8
2016-Jan-03 23:00N 41°30' W 081°42'0 0.0 330 / 121017.8 -0.0 6.9
2016-Jan-03 22:00N 41°30' W 081°42'0 0.0 330 / 131017.1 0.5 7.1
2016-Jan-03 19:00N 41°30' W 081°42'0 0.0 330 / 91015.1 1.9 7.9
2016-Jan-03 18:00N 41°30' W 081°42'0 0.0 330 / 111014.7 1.4 7.8
2016-Jan-03 15:00N 41°30' W 081°42'0 0.0 260 / 141014.7 0.5 7.5
2016-Jan-03 14:00N 41°30' W 081°42'0 0.0 240 / 131014.0 0.4 7.8
2016-Jan-03 12:00N 41°30' W 081°42'0 0.0 240 / 111013.0 0.3 7.8
2016-Jan-03 10:00N 41°30' W 081°42'0 0.0 260 / 171012.0 0.6 7.7
2016-Jan-03 09:00N 41°30' W 081°42'0 0.0 260 / 151012.0 0.7 7.6
2016-Jan-03 07:00N 41°30' W 081°42'0 0.0 240 / 101012.0 1.0 7.8
2016-Jan-03 06:00N 41°30' W 081°42'0 0.0 230 / 151011.3 1.3 7.9
2016-Jan-03 04:00N 41°30' W 081°42'0 0.0 210 / 111012.4 1.3 8.2
2016-Jan-03 03:00N 41°30' W 081°42'0 0.0 210 / 141012.0 1.0 8.6
2016-Jan-03 02:00N 41°30' W 081°42'0 0.0 220 / 121014.0 0.5 8.8
2016-Jan-03 01:00N 41°30' W 081°42'0 0.0 210 / 81014.7 -0.0 8.8
2016-Jan-03 00:00N 41°30' W 081°42'0 0.0 210 / 41015.7 -0.1 8.4
2016-Jan-02 23:00N 41°30' W 081°42'0 0.0 200 / 61016.1 0.1 9.2
2016-Jan-02 22:00N 41°30' W 081°42'0 0.0 210 / 101016.1 0.1 9.0
2016-Jan-02 21:00N 41°30' W 081°42'0 0.0 220 / 151016.1 -0.2 8.6
2016-Jan-02 20:00N 41°30' W 081°42'0 0.0 230 / 121016.4 -0.5 8.6
2016-Jan-02 19:00N 41°30' W 081°42'0 0.0 260 / 141017.1 -0.9 8.6
2016-Jan-02 16:00N 41°30' W 081°42'0 0.0 230 / 151019.5 -1.2 8.1
2016-Jan-02 15:00N 41°30' W 081°42'0 0.0 230 / 121019.5 -1.4 8.0
2016-Jan-02 12:00N 41°30' W 081°42'0 0.0 200 / 121018.8 -2.8 9.1
2016-Jan-02 11:00N 41°30' W 081°42'0 0.0 210 / 101018.5 -2.5 9.2
2016-Jan-02 10:00N 41°30' W 081°42'0 0.0 230 / 111018.8 -2.3 9.1
2016-Jan-02 09:00N 41°30' W 081°42'0 0.0 210 / 91019.5 -2.1 9.3
2016-Jan-02 07:00N 41°30' W 081°42'0 0.0 210 / 91020.5 -2.2 9.2
2016-Jan-02 06:00N 41°30' W 081°42'0 0.0 240 / 121021.2 -2.5 9.2
2016-Jan-02 05:00N 41°30' W 081°42'0 0.0 230 / 101021.5 -2.8 9.3
2016-Jan-02 04:00N 41°30' W 081°42'0 0.0 230 / 121021.5 -2.9 9.2
2016-Jan-02 03:00N 41°30' W 081°42'0 0.0 240 / 111022.2 -2.8 9.2
2016-Jan-02 01:00N 41°30' W 081°42'0 0.0 240 / 141021.5 -2.9 9.2
2016-Jan-02 00:00N 41°30' W 081°42'0 0.0 240 / 181021.5 -3.2 9.3
2016-Jan-01 23:00N 41°30' W 081°42'0 0.0 250 / 171021.5 -2.9 9.2
2016-Jan-01 22:00N 41°30' W 081°42'0 0.0 250 / 241021.2 -2.3 8.9
2016-Jan-01 21:00N 41°30' W 081°42'0 0.0 260 / 241020.1 -1.8 9.3
2016-Jan-01 19:00N 41°30' W 081°42'0 0.0 260 / 241019.5 -1.2 9.5
2016-Jan-01 18:00N 41°30' W 081°42'0 0.0 260 / 221019.8 -1.2 9.5
2016-Jan-01 17:00N 41°30' W 081°42'0 0.0 230 / 171020.5 -1.1 9.5
2016-Jan-01 16:00N 41°30' W 081°42'0 0.0 240 / 171021.5 -1.2 9.5
2016-Jan-01 13:00N 41°30' W 081°42'0 0.0 260 / 201021.2 -1.6 9.5
2016-Jan-01 12:00N 41°30' W 081°42'0 0.0 260 / 51021.2 -1.1 9.4
2016-Jan-01 11:00N 41°30' W 081°42'0 0.0 240 / 121020.8 -0.8 9.2
2016-Jan-01 10:00N 41°30' W 081°42'0 0.0 260 / 121021.2 -0.9 8.6
2016-Jan-01 09:00N 41°30' W 081°42'0 0.0 260 / 121021.5 -0.9 8.8
2016-Jan-01 08:00N 41°30' W 081°42'0 0.0 260 / 91022.2 -0.7 8.8
2016-Jan-01 05:00N 41°30' W 081°42'0 0.0 270 / 81023.2 -0.0 9.6
2016-Jan-01 04:00N 41°30' W 081°42'0 0.0 250 / 141022.9 -0.1 8.3
2016-Jan-01 03:00N 41°30' W 081°42'0 0.0 230 / 111023.2 -0.2 8.5
2016-Jan-01 00:00N 41°30' W 081°42'18 6.0 240 / 101023.9 -0.8 8.4
2015-Dec-31 21:00N 41°30' W 082°06'4 4.5 270 / 191023.2 -0.4 7.9
2015-Dec-31 20:00N 41°30' W 082°12'0 0.0 240 / 101023.5 -0.5 8.4
2015-Dec-31 19:00N 41°30' W 082°12'0 0.0 230 / 91023.2 -0.8 8.5
2015-Dec-31 18:00N 41°30' W 082°12'0 0.0 250 / 81023.5 -0.7 8.4
2015-Dec-31 17:00N 41°30' W 082°12'0 0.0 240 / 101024.2 -0.7 8.6
2015-Dec-31 16:00N 41°30' W 082°12'0 0.0 250 / 101024.9 -0.6 8.6
2015-Dec-31 15:00N 41°30' W 082°12'0 0.0 220 / 71024.9 -0.7 8.5
2015-Dec-31 14:00N 41°30' W 082°12'   250 / 191024.2 0.5 8.0

Dump ship's entire track history